createdAt,value
2022-10-23T00:00:19.360Z,9.90
2022-10-23T00:02:54.817Z,9.80
2022-10-23T00:05:28.577Z,9.80
2022-10-23T00:08:00.262Z,9.80
2022-10-23T00:10:30.176Z,9.80
2022-10-23T00:12:58.494Z,9.90
2022-10-23T00:15:27.501Z,9.90
2022-10-23T00:17:57.919Z,9.90
2022-10-23T00:20:28.887Z,9.90
2022-10-23T00:22:57.570Z,9.90
2022-10-23T00:25:26.184Z,9.90
2022-10-23T00:27:55.538Z,9.90
2022-10-23T00:30:23.897Z,9.80
2022-10-23T00:32:52.771Z,9.90
2022-10-23T00:35:21.157Z,9.90
2022-10-23T00:37:52.299Z,9.90
2022-10-23T00:40:21.050Z,9.90
2022-10-23T00:42:49.908Z,9.90
2022-10-23T00:45:23.258Z,9.90
2022-10-23T00:47:52.148Z,9.90
2022-10-23T00:50:24.931Z,9.80
2022-10-23T00:52:57.347Z,9.90
2022-10-23T00:55:28.397Z,9.80
2022-10-23T00:57:57.475Z,9.90
2022-10-23T01:00:28.531Z,9.70
2022-10-23T01:02:58.191Z,9.80
2022-10-23T01:05:34.146Z,9.80
2022-10-23T01:08:12.232Z,9.80
2022-10-23T01:10:46.371Z,9.70
2022-10-23T01:13:23.835Z,9.70
2022-10-23T01:16:02.239Z,9.70
2022-10-23T01:18:41.272Z,9.70
2022-10-23T01:21:18.145Z,9.60
2022-10-23T01:24:04.968Z,9.50
2022-10-23T01:26:55.784Z,9.50
2022-10-23T01:29:32.810Z,9.50
2022-10-23T01:32:07.304Z,9.40
2022-10-23T01:34:48.252Z,9.40
2022-10-23T01:37:23.400Z,9.30
2022-10-23T01:39:56.133Z,9.30
2022-10-23T01:42:31.396Z,9.30
2022-10-23T01:45:07.180Z,9.40
2022-10-23T01:47:37.869Z,9.40
2022-10-23T01:50:09.684Z,9.50
2022-10-23T01:52:39.009Z,9.50
2022-10-23T01:55:11.713Z,9.60
2022-10-23T01:57:43.818Z,9.70
2022-10-23T02:00:18.521Z,9.70
2022-10-23T02:02:49.855Z,9.80
2022-10-23T02:05:22.913Z,9.90
2022-10-23T02:07:52.392Z,9.90
2022-10-23T02:10:23.007Z,9.90
2022-10-23T02:13:00.456Z,10.00
2022-10-23T02:15:34.280Z,10.00
2022-10-23T02:18:10.941Z,10.10
2022-10-23T02:23:24.392Z,10.00
2022-10-23T02:25:58.483Z,10.00
2022-10-23T02:28:35.741Z,10.10
2022-10-23T02:31:06.698Z,10.10
2022-10-23T02:33:36.777Z,10.20
2022-10-23T02:36:05.946Z,10.20
2022-10-23T02:38:40.510Z,10.20
2022-10-23T02:41:26.740Z,10.10
2022-10-23T02:44:15.766Z,10.10
2022-10-23T02:46:54.185Z,10.20
2022-10-23T02:49:31.661Z,10.20
2022-10-23T02:52:10.601Z,10.30
2022-10-23T02:54:57.155Z,10.30
2022-10-23T02:57:33.661Z,10.30
2022-10-23T03:00:09.327Z,10.20
2022-10-23T03:02:43.803Z,10.10
2022-10-23T03:05:18.234Z,10.20
2022-10-23T03:07:48.559Z,10.20
2022-10-23T03:10:19.307Z,10.30
2022-10-23T03:12:48.878Z,10.40
2022-10-23T03:15:19.547Z,10.40
2022-10-23T03:17:49.424Z,10.50
2022-10-23T03:20:18.099Z,10.50
2022-10-23T03:22:47.619Z,10.50
2022-10-23T03:25:16.195Z,10.50
2022-10-23T03:27:44.694Z,10.50
2022-10-23T03:30:16.337Z,10.50
2022-10-23T03:32:44.747Z,10.50
2022-10-23T03:35:14.906Z,10.40
2022-10-23T03:37:43.494Z,10.40
2022-10-23T03:40:12.885Z,10.40
2022-10-23T03:42:41.338Z,10.40
2022-10-23T03:45:10.966Z,10.40
2022-10-23T03:47:41.444Z,10.40
2022-10-23T03:50:11.898Z,10.30
2022-10-23T03:52:42.677Z,10.30
2022-10-23T03:55:11.691Z,10.40
2022-10-23T03:57:40.237Z,10.30
2022-10-23T04:00:13.135Z,10.20
2022-10-23T04:02:43.757Z,10.10
2022-10-23T04:05:12.714Z,10.10
2022-10-23T04:07:43.802Z,10.20
2022-10-23T04:10:12.097Z,10.20
2022-10-23T04:12:40.604Z,10.10
2022-10-23T04:15:10.642Z,10.20
2022-10-23T04:17:39.083Z,10.20
2022-10-23T04:20:07.879Z,10.20
2022-10-23T04:22:36.243Z,10.30
2022-10-23T04:25:06.681Z,10.40
2022-10-23T04:27:35.267Z,10.50
2022-10-23T04:30:04.374Z,10.60
2022-10-23T04:32:33.252Z,10.70
2022-10-23T04:35:05.043Z,10.80
2022-10-23T04:37:35.538Z,10.80
2022-10-23T04:40:05.802Z,10.80
2022-10-23T04:42:34.313Z,10.70
2022-10-23T04:45:08.535Z,10.80
2022-10-23T04:47:37.118Z,10.80
2022-10-23T04:50:07.103Z,10.80
2022-10-23T04:52:35.666Z,10.80
2022-10-23T04:55:09.974Z,10.80
2022-10-23T04:57:38.795Z,10.70
2022-10-23T05:00:10.964Z,10.60
2022-10-23T05:02:39.305Z,10.60
2022-10-23T05:05:09.288Z,10.50
2022-10-23T05:07:38.388Z,10.50
2022-10-23T05:10:11.112Z,10.60
2022-10-23T05:12:39.462Z,10.60
2022-10-23T05:15:09.185Z,10.60
2022-10-23T05:17:40.813Z,10.70
2022-10-23T05:20:15.253Z,10.70
2022-10-23T05:22:45.899Z,10.80
2022-10-23T05:25:16.605Z,10.70
2022-10-23T05:27:45.591Z,10.60
2022-10-23T05:30:19.430Z,10.50
2022-10-23T05:32:47.849Z,10.50
2022-10-23T05:35:23.277Z,10.30
2022-10-23T05:37:54.589Z,10.40
2022-10-23T05:40:24.803Z,10.50
2022-10-23T05:42:54.370Z,10.60
2022-10-23T05:45:23.169Z,10.70
2022-10-23T05:47:53.868Z,10.70
2022-10-23T05:50:23.295Z,10.80
2022-10-23T05:52:51.859Z,10.80
2022-10-23T05:55:20.240Z,10.80
2022-10-23T05:57:50.527Z,10.70
2022-10-23T06:00:25.428Z,10.70
2022-10-23T06:02:57.175Z,10.70
2022-10-23T06:05:25.526Z,10.80
2022-10-23T06:07:54.359Z,10.90
2022-10-23T06:10:23.731Z,10.90
2022-10-23T06:12:54.284Z,10.90
2022-10-23T06:15:23.417Z,11.00
2022-10-23T06:17:51.925Z,11.10
2022-10-23T06:20:21.582Z,11.20
2022-10-23T06:22:53.095Z,11.20
2022-10-23T06:25:22.231Z,11.30
2022-10-23T06:27:54.453Z,11.30
2022-10-23T06:30:23.684Z,11.30
2022-10-23T06:32:52.487Z,11.30
2022-10-23T06:35:20.883Z,11.40
2022-10-23T06:37:49.265Z,11.40
2022-10-23T06:40:20.124Z,11.50
2022-10-23T06:42:48.472Z,11.30
2022-10-23T06:45:18.736Z,11.30
2022-10-23T06:47:47.125Z,11.40
2022-10-23T06:50:18.145Z,11.40
2022-10-23T06:52:48.119Z,11.40
2022-10-23T06:55:18.532Z,11.40
2022-10-23T06:57:47.626Z,11.40
2022-10-23T07:00:17.917Z,11.50
2022-10-23T07:02:47.700Z,11.50
2022-10-23T07:05:16.612Z,11.50
2022-10-23T07:07:45.415Z,11.60
2022-10-23T07:12:42.681Z,11.80
2022-10-23T07:15:12.297Z,11.90
2022-10-23T07:17:42.009Z,11.90
2022-10-23T07:20:11.206Z,11.80
2022-10-23T07:22:39.507Z,11.80
2022-10-23T07:25:09.051Z,11.80
2022-10-23T07:27:38.800Z,11.70
2022-10-23T07:30:08.800Z,11.90
2022-10-23T07:32:37.170Z,12.10
2022-10-23T07:35:10.105Z,12.00
2022-10-23T07:37:39.759Z,12.20
2022-10-23T07:40:10.210Z,12.20
2022-10-23T07:42:38.890Z,12.10
2022-10-23T07:45:08.767Z,12.10
2022-10-23T07:47:37.080Z,12.10
2022-10-23T07:50:07.700Z,12.30
2022-10-23T07:52:36.892Z,12.30
2022-10-23T07:55:07.124Z,12.40
2022-10-23T07:57:35.591Z,12.40
2022-10-23T08:00:04.756Z,12.20
2022-10-23T08:02:34.197Z,12.50
2022-10-23T08:05:02.738Z,12.70
2022-10-23T08:07:32.652Z,12.70
2022-10-23T08:10:00.967Z,12.60
2022-10-23T08:12:29.247Z,12.70
2022-10-23T08:14:57.521Z,12.70
2022-10-23T08:17:28.185Z,12.70
2022-10-23T08:19:56.871Z,12.80
2022-10-23T08:22:25.208Z,12.90
2022-10-23T08:24:54.833Z,12.70
2022-10-23T08:27:23.252Z,12.80
2022-10-23T08:29:52.412Z,12.70
2022-10-23T08:32:20.666Z,12.70
2022-10-23T08:34:49.240Z,12.90
2022-10-23T08:37:17.967Z,12.80
2022-10-23T08:39:48.084Z,12.90
2022-10-23T08:42:25.429Z,12.70
2022-10-23T08:45:02.771Z,12.70
2022-10-23T08:47:40.070Z,12.70
2022-10-23T08:50:16.134Z,12.90
2022-10-23T08:52:52.727Z,12.70
2022-10-23T08:55:30.061Z,12.60
2022-10-23T08:58:06.724Z,12.60
2022-10-23T09:00:36.004Z,12.70
2022-10-23T09:03:06.753Z,12.80
2022-10-23T09:05:49.324Z,12.50
2022-10-23T09:08:30.214Z,12.50
2022-10-23T09:11:05.718Z,12.50
2022-10-23T09:14:06.792Z,12.40
2022-10-23T09:16:56.995Z,12.40
2022-10-23T09:19:28.052Z,12.40
2022-10-23T09:21:57.736Z,12.40
2022-10-23T09:24:31.606Z,12.60
2022-10-23T09:27:01.087Z,12.70
2022-10-23T09:29:35.829Z,13.00
2022-10-23T09:32:07.456Z,13.00
2022-10-23T09:34:36.808Z,13.10
2022-10-23T09:37:21.831Z,13.30
2022-10-23T09:39:50.361Z,13.40
2022-10-23T09:42:25.026Z,13.60
2022-10-23T09:44:57.524Z,13.90
2022-10-23T09:47:30.194Z,13.80
2022-10-23T09:49:58.841Z,13.90
2022-10-23T09:52:39.316Z,13.90
2022-10-23T09:55:23.130Z,13.80
2022-10-23T09:57:53.448Z,14.20
2022-10-23T10:00:26.155Z,14.20
2022-10-23T10:03:01.513Z,14.30
2022-10-23T10:05:32.617Z,14.20
2022-10-23T10:08:16.034Z,14.30
2022-10-23T10:10:54.666Z,14.40
2022-10-23T10:13:46.402Z,14.50
2022-10-23T10:16:29.658Z,14.90
2022-10-23T10:19:08.858Z,15.00
2022-10-23T10:21:46.703Z,15.00
2022-10-23T10:24:25.989Z,15.10
2022-10-23T10:27:04.479Z,15.10
2022-10-23T10:29:51.397Z,15.20
2022-10-23T10:32:37.620Z,15.50
2022-10-23T10:35:24.699Z,15.40
2022-10-23T10:38:14.662Z,15.70
2022-10-23T10:40:49.218Z,15.90
2022-10-23T10:43:33.994Z,15.80
2022-10-23T10:46:12.366Z,16.00
2022-10-23T10:48:50.806Z,16.20
2022-10-23T10:51:30.732Z,16.10
2022-10-23T10:54:22.818Z,16.00
2022-10-23T10:56:51.284Z,16.20
2022-10-23T10:59:26.038Z,16.30
2022-10-23T11:02:01.593Z,16.00
2022-10-23T11:04:37.586Z,16.10
2022-10-23T11:07:12.292Z,16.00
2022-10-23T11:09:43.350Z,16.00
2022-10-23T11:12:19.648Z,16.00
2022-10-23T11:14:48.234Z,16.20
2022-10-23T11:17:24.270Z,16.50
2022-10-23T11:20:04.200Z,16.40
2022-10-23T11:22:38.799Z,16.30
2022-10-23T11:25:33.232Z,16.50
2022-10-23T11:28:27.986Z,16.60
2022-10-23T11:31:12.086Z,16.50
2022-10-23T11:34:13.910Z,16.70
2022-10-23T11:36:51.268Z,16.50
2022-10-23T11:39:24.953Z,16.50
2022-10-23T11:41:56.552Z,16.50
2022-10-23T11:44:30.572Z,16.40
2022-10-23T11:47:04.773Z,16.30
2022-10-23T11:49:33.407Z,16.40
2022-10-23T11:52:06.443Z,16.30
2022-10-23T11:54:34.788Z,16.00
2022-10-23T11:57:14.827Z,15.80
2022-10-23T11:59:54.292Z,16.00
2022-10-23T12:02:33.832Z,15.90
2022-10-23T12:05:07.055Z,15.90
2022-10-23T12:07:39.775Z,16.00
2022-10-23T12:10:28.736Z,15.90
2022-10-23T12:13:00.136Z,16.00
2022-10-23T12:15:29.425Z,16.20
2022-10-23T12:18:15.954Z,16.30
2022-10-23T12:20:52.825Z,16.20
2022-10-23T12:23:51.639Z,16.10
2022-10-23T12:26:41.632Z,16.10
2022-10-23T12:29:23.594Z,16.00
2022-10-23T12:32:02.295Z,16.10
2022-10-23T12:34:44.989Z,16.30
2022-10-23T12:37:59.165Z,16.30
2022-10-23T12:40:30.264Z,16.40
2022-10-23T12:43:00.927Z,16.60
2022-10-23T12:45:33.431Z,16.60
2022-10-23T12:48:01.698Z,16.60
2022-10-23T12:50:33.108Z,16.70
2022-10-23T12:53:08.780Z,16.80
2022-10-23T12:55:52.641Z,16.60
2022-10-23T12:58:23.650Z,16.40
2022-10-23T13:00:54.089Z,16.40
2022-10-23T13:03:24.999Z,16.40
2022-10-23T13:05:55.386Z,16.20
2022-10-23T13:08:25.585Z,16.30
2022-10-23T13:10:55.374Z,16.10
2022-10-23T13:13:24.990Z,16.10
2022-10-23T13:15:53.408Z,16.10
2022-10-23T13:18:21.737Z,16.00
2022-10-23T13:23:36.186Z,15.90
2022-10-23T13:26:07.868Z,15.90
2022-10-23T13:28:44.670Z,15.90
2022-10-23T13:31:30.898Z,15.90
2022-10-23T13:34:25.298Z,15.80
2022-10-23T13:37:01.735Z,15.80
2022-10-23T13:39:33.225Z,15.80
2022-10-23T13:42:14.732Z,15.80
2022-10-23T13:44:43.665Z,15.70
2022-10-23T13:47:14.485Z,15.70
2022-10-23T13:49:42.793Z,15.80
2022-10-23T13:52:15.059Z,15.80
2022-10-23T13:54:43.674Z,16.00
2022-10-23T13:57:16.622Z,16.00
2022-10-23T13:59:44.878Z,16.10
2022-10-23T14:02:21.934Z,16.10
2022-10-23T14:04:51.601Z,16.10
2022-10-23T14:07:20.119Z,16.10
2022-10-23T14:09:50.561Z,16.00
2022-10-23T14:12:20.451Z,15.90
2022-10-23T14:14:52.781Z,16.00
2022-10-23T14:17:22.130Z,15.90
2022-10-23T14:19:51.096Z,15.90
2022-10-23T14:22:19.418Z,15.90
2022-10-23T14:24:47.692Z,15.90
2022-10-23T14:27:23.515Z,16.00
2022-10-23T14:29:53.945Z,15.90
2022-10-23T14:32:22.240Z,15.90
2022-10-23T14:34:54.331Z,16.00
2022-10-23T14:37:23.119Z,16.00
2022-10-23T14:39:51.641Z,16.00
2022-10-23T14:42:20.158Z,16.00
2022-10-23T14:44:51.107Z,15.90
2022-10-23T14:47:20.366Z,16.00
2022-10-23T14:49:53.361Z,16.00
2022-10-23T14:52:22.005Z,16.10
2022-10-23T14:54:52.283Z,16.10
2022-10-23T14:57:24.392Z,16.10
2022-10-23T14:59:54.222Z,16.20
2022-10-23T15:02:24.683Z,16.20
2022-10-23T15:04:53.621Z,16.30
2022-10-23T15:07:21.914Z,16.20
2022-10-23T15:09:51.937Z,16.10
2022-10-23T15:12:24.519Z,16.00
2022-10-23T15:14:54.362Z,16.00
2022-10-23T15:17:29.372Z,16.00
2022-10-23T15:19:57.724Z,16.10
2022-10-23T15:22:26.260Z,16.00
2022-10-23T15:24:56.431Z,15.90
2022-10-23T15:27:24.837Z,15.90
2022-10-23T15:29:55.338Z,15.90
2022-10-23T15:32:23.721Z,15.70
2022-10-23T15:34:53.799Z,15.80
2022-10-23T15:37:22.182Z,15.70
2022-10-23T15:39:50.535Z,15.60
2022-10-23T15:42:20.064Z,15.60
2022-10-23T15:44:48.736Z,15.60
2022-10-23T15:47:21.149Z,15.60
2022-10-23T15:49:49.607Z,15.50
2022-10-23T15:52:18.062Z,15.50
2022-10-23T15:54:46.560Z,15.50
2022-10-23T15:57:15.022Z,15.50
2022-10-23T15:59:43.383Z,15.40
2022-10-23T16:02:13.539Z,15.50
2022-10-23T16:04:43.495Z,15.40
2022-10-23T16:07:13.876Z,15.40
2022-10-23T16:09:42.406Z,15.40
2022-10-23T16:12:11.172Z,15.30
2022-10-23T16:14:40.841Z,15.20
2022-10-23T16:19:46.042Z,15.10
2022-10-23T16:22:16.137Z,15.10
2022-10-23T16:24:44.623Z,15.10
2022-10-23T16:27:13.400Z,15.00
2022-10-23T16:29:41.940Z,15.00
2022-10-23T16:32:11.328Z,15.00
2022-10-23T16:34:39.893Z,14.90
2022-10-23T16:37:09.566Z,14.90
2022-10-23T16:39:39.170Z,14.90
2022-10-23T16:42:07.781Z,14.90
2022-10-23T16:44:38.466Z,14.80
2022-10-23T16:47:07.375Z,14.80
2022-10-23T16:49:36.186Z,14.90
2022-10-23T16:52:04.670Z,14.80
2022-10-23T16:54:34.415Z,14.70
2022-10-23T16:57:05.057Z,14.70
2022-10-23T16:59:34.356Z,14.60
2022-10-23T17:02:02.950Z,14.70
2022-10-23T17:04:32.287Z,14.80
2022-10-23T17:07:00.699Z,14.80
2022-10-23T17:09:31.591Z,14.80
2022-10-23T17:12:01.595Z,14.70
2022-10-23T17:14:30.072Z,14.70
2022-10-23T17:17:02.029Z,14.70
2022-10-23T17:19:44.588Z,14.80
2022-10-23T17:22:16.187Z,14.70
2022-10-23T17:24:50.103Z,14.60
2022-10-23T17:27:23.441Z,14.70
2022-10-23T17:29:52.028Z,14.70
2022-10-23T17:34:53.124Z,14.70
2022-10-23T17:37:24.439Z,14.70
2022-10-23T17:39:57.126Z,14.70
2022-10-23T17:42:29.231Z,14.70
2022-10-23T17:44:59.124Z,14.70
2022-10-23T17:47:27.590Z,14.80
2022-10-23T17:49:56.048Z,14.70
2022-10-23T17:52:24.539Z,14.70
2022-10-23T17:54:54.854Z,14.70
2022-10-23T18:00:00.566Z,14.70
2022-10-23T18:02:29.384Z,14.60
2022-10-23T18:04:59.175Z,14.50
2022-10-23T18:07:29.802Z,14.60
2022-10-23T18:09:59.254Z,14.60
2022-10-23T18:12:30.423Z,14.60
2022-10-23T18:15:02.745Z,14.60
2022-10-23T18:17:31.476Z,14.60
2022-10-23T18:20:02.261Z,14.60
2022-10-23T18:22:33.778Z,14.70
2022-10-23T18:25:03.897Z,14.60
2022-10-23T18:27:32.503Z,14.60
2022-10-23T18:30:03.753Z,14.60
2022-10-23T18:32:32.134Z,14.70
2022-10-23T18:35:00.775Z,14.70
2022-10-23T18:37:38.988Z,14.70
2022-10-23T18:40:13.258Z,14.60
2022-10-23T18:42:41.921Z,14.60
2022-10-23T18:45:14.420Z,14.60
2022-10-23T18:47:43.327Z,14.60
2022-10-23T18:50:14.655Z,14.50
2022-10-23T18:52:43.281Z,14.50
2022-10-23T18:55:13.603Z,14.50
2022-10-23T18:57:43.068Z,14.40
2022-10-23T19:00:15.554Z,14.30
2022-10-23T19:02:47.721Z,14.30
2022-10-23T19:05:21.364Z,14.30
2022-10-23T19:07:51.379Z,14.40
2022-10-23T19:10:23.072Z,14.50
2022-10-23T19:12:52.655Z,14.50
2022-10-23T19:15:28.377Z,14.50
2022-10-23T19:18:00.168Z,14.50
2022-10-23T19:20:30.046Z,14.50
2022-10-23T19:23:00.812Z,14.50
2022-10-23T19:25:34.563Z,14.40
2022-10-23T19:28:05.477Z,14.40
2022-10-23T19:30:36.546Z,14.40
2022-10-23T19:33:06.227Z,14.40
2022-10-23T19:35:45.734Z,14.30
2022-10-23T19:38:14.253Z,14.40
2022-10-23T19:40:56.601Z,14.30
2022-10-23T19:43:25.053Z,14.30
2022-10-23T19:45:54.823Z,14.40
2022-10-23T19:48:23.630Z,14.50
2022-10-23T19:50:52.283Z,14.40
2022-10-23T19:53:21.540Z,14.50
2022-10-23T19:55:50.090Z,14.50
2022-10-23T19:58:18.903Z,14.40
2022-10-23T20:00:48.772Z,14.50
2022-10-23T20:03:19.502Z,14.40
2022-10-23T20:05:49.891Z,14.40
2022-10-23T20:08:20.431Z,14.40
2022-10-23T20:10:50.062Z,14.40
2022-10-23T20:13:20.623Z,14.40
2022-10-23T20:15:49.426Z,14.90
2022-10-23T20:18:19.245Z,15.40
2022-10-23T20:20:47.920Z,15.90
2022-10-23T20:23:16.389Z,16.50
2022-10-23T20:25:45.109Z,17.10
2022-10-23T20:28:15.174Z,17.50
2022-10-23T20:30:45.559Z,17.60
2022-10-23T20:33:14.514Z,17.70
2022-10-23T20:35:45.084Z,17.90
2022-10-23T20:38:13.631Z,17.90
2022-10-23T20:40:42.170Z,18.00
2022-10-23T20:43:11.779Z,18.00
2022-10-23T20:45:41.064Z,18.10
2022-10-23T20:48:09.415Z,18.30
2022-10-23T20:50:37.964Z,18.30
2022-10-23T20:53:07.672Z,18.20
2022-10-23T20:55:36.229Z,18.10
2022-10-23T20:58:04.833Z,18.10
2022-10-23T21:00:35.263Z,18.00
2022-10-23T21:03:05.361Z,18.20
2022-10-23T21:05:35.321Z,18.20
2022-10-23T21:08:07.519Z,18.20
2022-10-23T21:10:36.529Z,18.10
2022-10-23T21:13:05.983Z,18.00
2022-10-23T21:15:36.307Z,18.00
2022-10-23T21:18:27.577Z,17.80
2022-10-23T21:21:10.536Z,17.70
2022-10-23T21:23:56.143Z,17.50
2022-10-23T21:26:25.504Z,17.10
2022-10-23T21:29:16.957Z,16.80
2022-10-23T21:31:45.135Z,16.50
2022-10-23T21:34:13.805Z,16.20
2022-10-23T21:37:07.517Z,16.00
2022-10-23T21:39:35.810Z,15.80
2022-10-23T21:42:06.406Z,15.60
2022-10-23T21:44:37.940Z,15.50
2022-10-23T21:47:07.188Z,15.40
2022-10-23T21:49:37.300Z,15.30
2022-10-23T21:52:07.842Z,15.20
2022-10-23T21:54:39.142Z,15.10
2022-10-23T21:57:15.785Z,15.00
2022-10-23T21:59:44.231Z,15.00
2022-10-23T22:02:12.896Z,14.90
2022-10-23T22:04:41.452Z,14.90
2022-10-23T22:07:11.174Z,14.80
2022-10-23T22:09:41.544Z,14.70
2022-10-23T22:12:12.432Z,14.70
2022-10-23T22:14:40.858Z,14.70
2022-10-23T22:17:09.194Z,14.60
2022-10-23T22:19:39.742Z,14.60
2022-10-23T22:22:09.174Z,14.60
2022-10-23T22:24:40.195Z,14.50
2022-10-23T22:27:11.593Z,14.50
2022-10-23T22:29:40.972Z,14.50
2022-10-23T22:32:09.344Z,14.60
2022-10-23T22:34:53.732Z,14.60
2022-10-23T22:37:22.343Z,14.60
2022-10-23T22:39:57.900Z,14.60
2022-10-23T22:42:27.638Z,14.50
2022-10-23T22:44:57.307Z,14.60
2022-10-23T22:47:25.980Z,14.60
2022-10-23T22:50:03.634Z,14.50
2022-10-23T22:52:32.073Z,14.40
2022-10-23T22:55:01.830Z,14.40
2022-10-23T22:57:30.410Z,14.30
2022-10-23T23:00:02.229Z,14.30
2022-10-23T23:02:32.504Z,14.20
2022-10-23T23:05:00.793Z,14.20
2022-10-23T23:07:29.966Z,14.20
2022-10-23T23:09:58.491Z,14.10
2022-10-23T23:12:28.171Z,14.10
2022-10-23T23:14:58.913Z,14.10
2022-10-23T23:17:27.370Z,14.00
2022-10-23T23:19:55.666Z,14.00
2022-10-23T23:22:23.988Z,14.00
2022-10-23T23:24:52.413Z,14.10
2022-10-23T23:27:20.725Z,14.10
2022-10-23T23:29:51.674Z,14.00
2022-10-23T23:32:20.713Z,13.90
2022-10-23T23:34:49.353Z,14.00
2022-10-23T23:37:17.891Z,14.00
2022-10-23T23:39:46.230Z,14.00
2022-10-23T23:42:14.742Z,13.90
2022-10-23T23:44:50.415Z,13.80
2022-10-23T23:47:33.295Z,13.80
2022-10-23T23:50:02.128Z,13.90
2022-10-23T23:52:34.004Z,13.90
2022-10-23T23:55:02.727Z,13.90
2022-10-23T23:57:32.406Z,13.90
